Terminal Aerodrome Forecast
Issued by NWS

Home | Current Version | Previous Version | Graphics & Text | Print | Product List | Glossary On
Versions: 1 2 3 4 5 6 7 8 9 10 11 12 13
847
FTUS45 KGGW 091120
TAFSDY
TAF
KSDY 091120Z 0912/1012 24006KT P6SM SKC WS020/32030KT
     FM091800 27014G23KT P6SM SKC
     FM092100 29013KT P6SM FEW200 WS020/31040KT
     FM100300 27009KT P6SM FEW200 WS020/32045KT=

USA.gov is the U.S. government's official web portal to all federal, state and local government web resources and services.